sensor_id;sensor_type;location;lat;lon;timestamp;P1;durP1;ratioP1;P2;durP2;ratioP2
20619;SDS011;10469;42.720;23.252;2023-03-19T00:01:03;3.83;;;2.70;;
20619;SDS011;10469;42.720;23.252;2023-03-19T00:03:30;2.00;;;1.90;;
20619;SDS011;10469;42.720;23.252;2023-03-19T00:05:55;4.68;;;2.55;;
20619;SDS011;10469;42.720;23.252;2023-03-19T00:08:21;3.72;;;2.40;;
20619;SDS011;10469;42.720;23.252;2023-03-19T00:10:47;5.53;;;2.38;;
20619;SDS011;10469;42.720;23.252;2023-03-19T00:13:13;3.63;;;2.50;;
20619;SDS011;10469;42.720;23.252;2023-03-19T00:15:38;4.13;;;2.25;;
20619;SDS011;10469;42.720;23.252;2023-03-19T00:18:04;3.40;;;2.95;;
20619;SDS011;10469;42.720;23.252;2023-03-19T00:20:30;3.33;;;2.42;;
20619;SDS011;10469;42.720;23.252;2023-03-19T00:22:56;7.10;;;3.55;;
20619;SDS011;10469;42.720;23.252;2023-03-19T00:25:21;2.42;;;2.17;;
20619;SDS011;10469;42.720;23.252;2023-03-19T00:27:47;6.85;;;2.72;;
20619;SDS011;10469;42.720;23.252;2023-03-19T00:30:13;5.53;;;2.83;;
20619;SDS011;10469;42.720;23.252;2023-03-19T00:32:39;2.90;;;2.47;;
20619;SDS011;10469;42.720;23.252;2023-03-19T00:35:10;4.15;;;2.13;;
20619;SDS011;10469;42.720;23.252;2023-03-19T00:37:36;2.47;;;2.35;;
20619;SDS011;10469;42.720;23.252;2023-03-19T00:40:02;6.18;;;2.20;;
20619;SDS011;10469;42.720;23.252;2023-03-19T00:42:28;3.05;;;2.75;;
20619;SDS011;10469;42.720;23.252;2023-03-19T00:44:54;5.72;;;2.58;;
20619;SDS011;10469;42.720;23.252;2023-03-19T00:47:20;3.63;;;2.45;;
20619;SDS011;10469;42.720;23.252;2023-03-19T00:49:46;6.03;;;2.78;;
20619;SDS011;10469;42.720;23.252;2023-03-19T00:52:12;2.67;;;2.47;;
20619;SDS011;10469;42.720;23.252;2023-03-19T00:54:37;6.00;;;3.17;;
20619;SDS011;10469;42.720;23.252;2023-03-19T00:57:03;2.25;;;2.08;;
20619;SDS011;10469;42.720;23.252;2023-03-19T00:59:28;3.17;;;2.00;;
20619;SDS011;10469;42.720;23.252;2023-03-19T01:01:54;3.65;;;2.63;;
20619;SDS011;10469;42.720;23.252;2023-03-19T01:04:19;5.40;;;3.25;;
20619;SDS011;10469;42.720;23.252;2023-03-19T01:06:45;2.78;;;2.30;;
20619;SDS011;10469;42.720;23.252;2023-03-19T01:09:11;5.85;;;3.08;;
20619;SDS011;10469;42.720;23.252;2023-03-19T01:11:36;2.67;;;2.35;;
20619;SDS011;10469;42.720;23.252;2023-03-19T01:14:02;4.70;;;3.13;;
20619;SDS011;10469;42.720;23.252;2023-03-19T01:16:27;6.22;;;2.85;;
20619;SDS011;10469;42.720;23.252;2023-03-19T01:18:53;12.00;;;4.97;;
20619;SDS011;10469;42.720;23.252;2023-03-19T01:21:19;6.47;;;3.75;;
20619;SDS011;10469;42.720;23.252;2023-03-19T01:23:46;9.23;;;4.40;;
20619;SDS011;10469;42.720;23.252;2023-03-19T01:26:11;14.77;;;3.65;;
20619;SDS011;10469;42.720;23.252;2023-03-19T01:28:37;7.57;;;2.50;;
20619;SDS011;10469;42.720;23.252;2023-03-19T01:31:06;5.35;;;2.90;;
20619;SDS011;10469;42.720;23.252;2023-03-19T01:33:33;4.00;;;3.28;;
20619;SDS011;10469;42.720;23.252;2023-03-19T01:35:58;4.97;;;3.22;;
20619;SDS011;10469;42.720;23.252;2023-03-19T01:38:27;3.22;;;2.75;;
20619;SDS011;10469;42.720;23.252;2023-03-19T01:40:53;5.78;;;3.05;;
20619;SDS011;10469;42.720;23.252;2023-03-19T01:43:23;4.72;;;3.00;;
20619;SDS011;10469;42.720;23.252;2023-03-19T01:45:58;10.75;;;4.22;;
20619;SDS011;10469;42.720;23.252;2023-03-19T01:51:12;5.15;;;3.15;;
20619;SDS011;10469;42.720;23.252;2023-03-19T01:53:43;4.50;;;2.90;;
20619;SDS011;10469;42.720;23.252;2023-03-19T01:56:16;9.98;;;4.72;;
20619;SDS011;10469;42.720;23.252;2023-03-19T01:58:54;6.30;;;4.15;;
20619;SDS011;10469;42.720;23.252;2023-03-19T02:01:23;6.80;;;3.38;;
20619;SDS011;10469;42.720;23.252;2023-03-19T02:03:50;11.30;;;6.15;;
20619;SDS011;10469;42.720;23.252;2023-03-19T02:06:18;9.15;;;5.25;;
20619;SDS011;10469;42.720;23.252;2023-03-19T02:08:47;17.88;;;8.98;;
20619;SDS011;10469;42.720;23.252;2023-03-19T02:11:14;18.90;;;6.57;;
20619;SDS011;10469;42.720;23.252;2023-03-19T02:13:39;16.27;;;6.20;;
20619;SDS011;10469;42.720;23.252;2023-03-19T02:16:05;10.07;;;6.85;;
20619;SDS011;10469;42.720;23.252;2023-03-19T02:18:31;13.23;;;6.25;;
20619;SDS011;10469;42.720;23.252;2023-03-19T02:20:59;15.85;;;5.82;;
20619;SDS011;10469;42.720;23.252;2023-03-19T02:26:03;9.70;;;5.00;;
20619;SDS011;10469;42.720;23.252;2023-03-19T02:28:32;7.55;;;3.38;;
20619;SDS011;10469;42.720;23.252;2023-03-19T02:30:58;11.02;;;4.10;;
20619;SDS011;10469;42.720;23.252;2023-03-19T02:33:25;5.13;;;3.83;;
20619;SDS011;10469;42.720;23.252;2023-03-19T02:35:51;5.13;;;3.45;;
20619;SDS011;10469;42.720;23.252;2023-03-19T02:51:56;4.63;;;3.92;;
20619;SDS011;10469;42.720;23.252;2023-03-19T02:54:22;9.23;;;4.60;;
20619;SDS011;10469;42.720;23.252;2023-03-19T02:56:47;8.52;;;4.07;;
20619;SDS011;10469;42.720;23.252;2023-03-19T02:59:14;9.82;;;4.53;;
20619;SDS011;10469;42.720;23.252;2023-03-19T03:01:39;7.13;;;4.47;;
20619;SDS011;10469;42.720;23.252;2023-03-19T03:04:05;10.27;;;5.07;;
20619;SDS011;10469;42.720;23.252;2023-03-19T03:06:31;11.15;;;4.18;;
20619;SDS011;10469;42.720;23.252;2023-03-19T03:08:56;5.15;;;3.72;;
20619;SDS011;10469;42.720;23.252;2023-03-19T03:11:22;7.13;;;3.67;;
20619;SDS011;10469;42.720;23.252;2023-03-19T03:13:48;11.85;;;3.78;;
20619;SDS011;10469;42.720;23.252;2023-03-19T03:16:17;3.63;;;2.60;;
20619;SDS011;10469;42.720;23.252;2023-03-19T03:18:42;4.10;;;2.85;;
20619;SDS011;10469;42.720;23.252;2023-03-19T03:21:08;3.13;;;2.53;;
20619;SDS011;10469;42.720;23.252;2023-03-19T03:23:34;3.65;;;2.72;;
20619;SDS011;10469;42.720;23.252;2023-03-19T03:26:00;3.83;;;3.28;;
20619;SDS011;10469;42.720;23.252;2023-03-19T03:28:26;5.70;;;3.45;;
20619;SDS011;10469;42.720;23.252;2023-03-19T03:30:57;4.78;;;2.45;;
20619;SDS011;10469;42.720;23.252;2023-03-19T03:33:24;5.97;;;3.85;;
20619;SDS011;10469;42.720;23.252;2023-03-19T03:35:49;6.55;;;2.85;;
20619;SDS011;10469;42.720;23.252;2023-03-19T03:38:15;10.40;;;5.05;;
20619;SDS011;10469;42.720;23.252;2023-03-19T03:40:42;5.75;;;3.58;;
20619;SDS011;10469;42.720;23.252;2023-03-19T03:43:08;7.45;;;4.03;;
20619;SDS011;10469;42.720;23.252;2023-03-19T03:45:34;6.82;;;4.35;;
20619;SDS011;10469;42.720;23.252;2023-03-19T03:48:01;5.97;;;2.65;;
20619;SDS011;10469;42.720;23.252;2023-03-19T03:50:27;5.43;;;3.80;;
20619;SDS011;10469;42.720;23.252;2023-03-19T03:52:53;4.38;;;3.20;;
20619;SDS011;10469;42.720;23.252;2023-03-19T03:55:18;4.32;;;3.65;;
20619;SDS011;10469;42.720;23.252;2023-03-19T03:57:44;3.10;;;2.88;;
20619;SDS011;10469;42.720;23.252;2023-03-19T04:00:13;4.15;;;3.53;;
20619;SDS011;10469;42.720;23.252;2023-03-19T04:02:39;10.32;;;3.40;;
20619;SDS011;10469;42.720;23.252;2023-03-19T04:05:04;5.22;;;3.80;;
20619;SDS011;10469;42.720;23.252;2023-03-19T04:07:31;3.55;;;2.83;;
20619;SDS011;10469;42.720;23.252;2023-03-19T04:09:56;6.13;;;4.18;;
20619;SDS011;10469;42.720;23.252;2023-03-19T04:12:23;3.88;;;2.58;;
20619;SDS011;10469;42.720;23.252;2023-03-19T04:14:49;7.75;;;2.63;;
20619;SDS011;10469;42.720;23.252;2023-03-19T04:17:14;3.53;;;2.75;;
20619;SDS011;10469;42.720;23.252;2023-03-19T04:19:40;4.35;;;3.17;;
20619;SDS011;10469;42.720;23.252;2023-03-19T04:22:07;6.60;;;3.58;;
20619;SDS011;10469;42.720;23.252;2023-03-19T04:24:32;5.97;;;3.13;;
20619;SDS011;10469;42.720;23.252;2023-03-19T04:26:58;5.10;;;3.63;;
20619;SDS011;10469;42.720;23.252;2023-03-19T04:29:23;8.38;;;3.33;;
20619;SDS011;10469;42.720;23.252;2023-03-19T04:31:49;4.13;;;2.72;;
20619;SDS011;10469;42.720;23.252;2023-03-19T04:34:15;6.03;;;3.03;;
20619;SDS011;10469;42.720;23.252;2023-03-19T04:36:41;3.45;;;2.55;;
20619;SDS011;10469;42.720;23.252;2023-03-19T04:39:08;4.45;;;2.83;;
20619;SDS011;10469;42.720;23.252;2023-03-19T04:41:34;8.18;;;3.20;;
20619;SDS011;10469;42.720;23.252;2023-03-19T04:43:59;6.13;;;2.70;;
20619;SDS011;10469;42.720;23.252;2023-03-19T04:46:26;2.50;;;2.30;;
20619;SDS011;10469;42.720;23.252;2023-03-19T04:48:51;4.97;;;2.75;;
20619;SDS011;10469;42.720;23.252;2023-03-19T04:51:17;3.03;;;2.38;;
20619;SDS011;10469;42.720;23.252;2023-03-19T04:53:45;3.13;;;2.63;;
20619;SDS011;10469;42.720;23.252;2023-03-19T04:56:11;7.07;;;2.88;;
20619;SDS011;10469;42.720;23.252;2023-03-19T04:58:40;3.97;;;2.80;;
20619;SDS011;10469;42.720;23.252;2023-03-19T05:01:06;5.95;;;3.97;;
20619;SDS011;10469;42.720;23.252;2023-03-19T05:03:32;3.40;;;2.42;;
20619;SDS011;10469;42.720;23.252;2023-03-19T05:05:57;3.95;;;3.10;;
20619;SDS011;10469;42.720;23.252;2023-03-19T05:08:23;3.53;;;3.10;;
20619;SDS011;10469;42.720;23.252;2023-03-19T05:10:49;3.35;;;3.13;;
20619;SDS011;10469;42.720;23.252;2023-03-19T05:13:14;4.78;;;2.67;;
20619;SDS011;10469;42.720;23.252;2023-03-19T05:15:40;6.18;;;3.00;;
20619;SDS011;10469;42.720;23.252;2023-03-19T05:18:08;5.30;;;2.85;;
20619;SDS011;10469;42.720;23.252;2023-03-19T05:20:34;6.50;;;3.83;;
20619;SDS011;10469;42.720;23.252;2023-03-19T05:23:01;4.70;;;3.33;;
20619;SDS011;10469;42.720;23.252;2023-03-19T05:25:27;4.78;;;3.40;;
20619;SDS011;10469;42.720;23.252;2023-03-19T05:27:54;3.88;;;2.97;;
20619;SDS011;10469;42.720;23.252;2023-03-19T05:30:19;5.32;;;3.38;;
20619;SDS011;10469;42.720;23.252;2023-03-19T05:32:45;4.88;;;3.90;;
20619;SDS011;10469;42.720;23.252;2023-03-19T05:35:11;10.38;;;4.80;;
20619;SDS011;10469;42.720;23.252;2023-03-19T05:37:38;9.88;;;4.18;;
20619;SDS011;10469;42.720;23.252;2023-03-19T05:40:04;7.18;;;4.78;;
20619;SDS011;10469;42.720;23.252;2023-03-19T05:42:30;6.22;;;3.65;;
20619;SDS011;10469;42.720;23.252;2023-03-19T05:44:56;9.65;;;5.32;;
20619;SDS011;10469;42.720;23.252;2023-03-19T05:47:22;9.02;;;5.40;;
20619;SDS011;10469;42.720;23.252;2023-03-19T05:49:48;5.45;;;4.25;;
20619;SDS011;10469;42.720;23.252;2023-03-19T05:52:14;5.95;;;4.22;;
20619;SDS011;10469;42.720;23.252;2023-03-19T05:54:39;10.30;;;3.95;;
20619;SDS011;10469;42.720;23.252;2023-03-19T05:57:09;9.23;;;5.07;;
20619;SDS011;10469;42.720;23.252;2023-03-19T05:59:34;13.55;;;5.70;;
20619;SDS011;10469;42.720;23.252;2023-03-19T06:02:00;9.68;;;5.55;;
20619;SDS011;10469;42.720;23.252;2023-03-19T06:04:26;13.10;;;5.90;;
20619;SDS011;10469;42.720;23.252;2023-03-19T06:06:51;9.85;;;6.32;;
20619;SDS011;10469;42.720;23.252;2023-03-19T06:09:17;9.82;;;6.05;;
20619;SDS011;10469;42.720;23.252;2023-03-19T06:11:43;9.38;;;5.90;;
20619;SDS011;10469;42.720;23.252;2023-03-19T06:14:08;8.77;;;5.10;;
20619;SDS011;10469;42.720;23.252;2023-03-19T06:16:34;6.28;;;4.80;;
20619;SDS011;10469;42.720;23.252;2023-03-19T06:19:01;10.27;;;4.95;;
20619;SDS011;10469;42.720;23.252;2023-03-19T06:21:27;7.78;;;4.72;;
20619;SDS011;10469;42.720;23.252;2023-03-19T06:24:00;6.72;;;4.10;;
20619;SDS011;10469;42.720;23.252;2023-03-19T06:26:50;5.75;;;4.03;;
20619;SDS011;10469;42.720;23.252;2023-03-19T06:50:35;8.63;;;4.63;;
20619;SDS011;10469;42.720;23.252;2023-03-19T06:53:02;9.20;;;5.22;;
20619;SDS011;10469;42.720;23.252;2023-03-19T06:55:28;13.45;;;4.82;;
20619;SDS011;10469;42.720;23.252;2023-03-19T06:57:55;8.07;;;4.63;;
20619;SDS011;10469;42.720;23.252;2023-03-19T07:00:21;8.02;;;3.90;;
20619;SDS011;10469;42.720;23.252;2023-03-19T07:02:47;9.88;;;5.07;;
20619;SDS011;10469;42.720;23.252;2023-03-19T07:05:13;7.82;;;5.20;;
20619;SDS011;10469;42.720;23.252;2023-03-19T07:07:39;8.95;;;4.95;;
20619;SDS011;10469;42.720;23.252;2023-03-19T07:10:05;10.68;;;5.22;;
20619;SDS011;10469;42.720;23.252;2023-03-19T07:12:31;9.35;;;5.22;;
20619;SDS011;10469;42.720;23.252;2023-03-19T07:14:57;9.32;;;5.50;;
20619;SDS011;10469;42.720;23.252;2023-03-19T07:17:32;6.85;;;4.93;;
20619;SDS011;10469;42.720;23.252;2023-03-19T07:20:27;10.85;;;6.15;;
20619;SDS011;10469;42.720;23.252;2023-03-19T07:22:53;11.38;;;5.60;;
20619;SDS011;10469;42.720;23.252;2023-03-19T07:25:25;10.93;;;5.55;;
20619;SDS011;10469;42.720;23.252;2023-03-19T07:27:55;11.98;;;5.85;;
20619;SDS011;10469;42.720;23.252;2023-03-19T07:30:21;10.45;;;5.80;;
20619;SDS011;10469;42.720;23.252;2023-03-19T07:32:48;8.85;;;5.00;;
20619;SDS011;10469;42.720;23.252;2023-03-19T07:35:13;9.50;;;5.10;;
20619;SDS011;10469;42.720;23.252;2023-03-19T07:37:39;8.73;;;5.72;;
20619;SDS011;10469;42.720;23.252;2023-03-19T07:40:06;8.20;;;5.63;;
20619;SDS011;10469;42.720;23.252;2023-03-19T07:42:32;11.68;;;6.18;;
20619;SDS011;10469;42.720;23.252;2023-03-19T07:45:01;10.65;;;5.53;;
20619;SDS011;10469;42.720;23.252;2023-03-19T07:47:28;17.40;;;5.80;;
20619;SDS011;10469;42.720;23.252;2023-03-19T07:50:09;8.48;;;4.90;;
20619;SDS011;10469;42.720;23.252;2023-03-19T07:52:39;7.45;;;4.85;;
20619;SDS011;10469;42.720;23.252;2023-03-19T07:57:43;9.95;;;5.55;;
20619;SDS011;10469;42.720;23.252;2023-03-19T08:00:09;9.75;;;5.68;;
20619;SDS011;10469;42.720;23.252;2023-03-19T08:02:35;11.43;;;6.30;;
20619;SDS011;10469;42.720;23.252;2023-03-19T08:05:01;8.85;;;5.72;;
20619;SDS011;10469;42.720;23.252;2023-03-19T08:07:29;10.82;;;6.93;;
20619;SDS011;10469;42.720;23.252;2023-03-19T08:09:55;11.40;;;6.47;;
20619;SDS011;10469;42.720;23.252;2023-03-19T08:12:22;9.73;;;6.07;;
20619;SDS011;10469;42.720;23.252;2023-03-19T08:14:48;8.38;;;5.00;;
20619;SDS011;10469;42.720;23.252;2023-03-19T08:43:06;8.07;;;5.13;;
20619;SDS011;10469;42.720;23.252;2023-03-19T08:45:32;10.88;;;5.45;;
20619;SDS011;10469;42.720;23.252;2023-03-19T08:47:57;9.95;;;5.20;;
20619;SDS011;10469;42.720;23.252;2023-03-19T08:50:23;9.57;;;5.53;;
20619;SDS011;10469;42.720;23.252;2023-03-19T08:52:49;7.30;;;5.30;;
20619;SDS011;10469;42.720;23.252;2023-03-19T08:55:15;9.75;;;5.28;;
20619;SDS011;10469;42.720;23.252;2023-03-19T08:57:41;7.53;;;4.40;;
20619;SDS011;10469;42.720;23.252;2023-03-19T09:00:07;5.90;;;4.43;;
20619;SDS011;10469;42.720;23.252;2023-03-19T09:02:33;6.97;;;4.70;;
20619;SDS011;10469;42.720;23.252;2023-03-19T09:04:58;6.57;;;4.13;;
20619;SDS011;10469;42.720;23.252;2023-03-19T09:07:24;5.60;;;4.07;;
20619;SDS011;10469;42.720;23.252;2023-03-19T09:09:50;7.90;;;4.57;;
20619;SDS011;10469;42.720;23.252;2023-03-19T09:12:15;7.93;;;4.20;;
20619;SDS011;10469;42.720;23.252;2023-03-19T09:14:42;5.18;;;3.55;;
20619;SDS011;10469;42.720;23.252;2023-03-19T09:17:08;7.85;;;4.35;;
20619;SDS011;10469;42.720;23.252;2023-03-19T09:19:34;5.00;;;4.03;;
20619;SDS011;10469;42.720;23.252;2023-03-19T09:22:01;7.25;;;3.67;;
20619;SDS011;10469;42.720;23.252;2023-03-19T09:24:27;9.30;;;3.88;;
20619;SDS011;10469;42.720;23.252;2023-03-19T09:26:53;4.43;;;3.58;;
20619;SDS011;10469;42.720;23.252;2023-03-19T09:29:19;8.15;;;3.80;;
20619;SDS011;10469;42.720;23.252;2023-03-19T09:31:44;4.35;;;3.28;;
20619;SDS011;10469;42.720;23.252;2023-03-19T09:34:10;9.02;;;4.10;;
20619;SDS011;10469;42.720;23.252;2023-03-19T09:36:37;7.47;;;4.53;;
20619;SDS011;10469;42.720;23.252;2023-03-19T09:39:03;6.13;;;3.78;;
20619;SDS011;10469;42.720;23.252;2023-03-19T09:44:03;4.10;;;3.33;;
20619;SDS011;10469;42.720;23.252;2023-03-19T09:49:14;7.63;;;3.67;;
20619;SDS011;10469;42.720;23.252;2023-03-19T09:57:23;4.13;;;3.03;;
20619;SDS011;10469;42.720;23.252;2023-03-19T09:59:54;5.00;;;2.55;;
20619;SDS011;10469;42.720;23.252;2023-03-19T10:16:20;5.13;;;2.40;;
20619;SDS011;10469;42.720;23.252;2023-03-19T10:18:49;2.75;;;2.30;;
20619;SDS011;10469;42.720;23.252;2023-03-19T10:21:22;4.05;;;2.60;;
20619;SDS011;10469;42.720;23.252;2023-03-19T10:24:01;4.30;;;2.95;;
20619;SDS011;10469;42.720;23.252;2023-03-19T10:26:38;3.25;;;2.95;;
20619;SDS011;10469;42.720;23.252;2023-03-19T10:29:08;3.28;;;2.20;;
20619;SDS011;10469;42.720;23.252;2023-03-19T10:34:30;7.68;;;2.83;;
20619;SDS011;10469;42.720;23.252;2023-03-19T10:37:19;2.78;;;2.45;;
20619;SDS011;10469;42.720;23.252;2023-03-19T10:39:45;4.70;;;3.17;;
20619;SDS011;10469;42.720;23.252;2023-03-19T10:47:35;5.65;;;3.40;;
20619;SDS011;10469;42.720;23.252;2023-03-19T10:50:03;5.13;;;3.05;;
20619;SDS011;10469;42.720;23.252;2023-03-19T10:52:31;5.93;;;2.58;;
20619;SDS011;10469;42.720;23.252;2023-03-19T10:57:42;9.60;;;5.90;;
20619;SDS011;10469;42.720;23.252;2023-03-19T11:00:17;5.95;;;3.42;;
20619;SDS011;10469;42.720;23.252;2023-03-19T11:02:47;5.53;;;2.90;;
20619;SDS011;10469;42.720;23.252;2023-03-19T11:05:25;5.72;;;3.47;;
20619;SDS011;10469;42.720;23.252;2023-03-19T11:08:03;6.35;;;2.75;;
20619;SDS011;10469;42.720;23.252;2023-03-19T11:10:34;2.60;;;2.13;;
20619;SDS011;10469;42.720;23.252;2023-03-19T11:26:04;3.72;;;2.60;;
20619;SDS011;10469;42.720;23.252;2023-03-19T11:28:30;2.63;;;2.42;;
20619;SDS011;10469;42.720;23.252;2023-03-19T11:31:09;6.72;;;2.45;;
20619;SDS011;10469;42.720;23.252;2023-03-19T11:33:47;5.20;;;2.60;;
20619;SDS011;10469;42.720;23.252;2023-03-19T11:53:20;4.43;;;2.22;;
20619;SDS011;10469;42.720;23.252;2023-03-19T11:58:50;3.63;;;2.55;;
20619;SDS011;10469;42.720;23.252;2023-03-19T12:09:28;3.72;;;2.80;;
20619;SDS011;10469;42.720;23.252;2023-03-19T12:12:24;2.90;;;2.38;;
20619;SDS011;10469;42.720;23.252;2023-03-19T12:15:07;3.78;;;2.03;;
20619;SDS011;10469;42.720;23.252;2023-03-19T12:17:45;4.18;;;2.47;;
20619;SDS011;10469;42.720;23.252;2023-03-19T12:20:35;2.85;;;2.03;;
20619;SDS011;10469;42.720;23.252;2023-03-19T12:23:36;5.30;;;2.50;;
20619;SDS011;10469;42.720;23.252;2023-03-19T12:35:15;3.40;;;2.15;;
20619;SDS011;10469;42.720;23.252;2023-03-19T12:40:26;3.83;;;2.25;;
20619;SDS011;10469;42.720;23.252;2023-03-19T12:42:56;3.38;;;2.38;;
20619;SDS011;10469;42.720;23.252;2023-03-19T12:47:53;3.90;;;2.45;;
20619;SDS011;10469;42.720;23.252;2023-03-19T12:50:28;3.25;;;2.30;;
20619;SDS011;10469;42.720;23.252;2023-03-19T12:52:58;2.67;;;1.92;;
20619;SDS011;10469;42.720;23.252;2023-03-19T12:55:32;3.42;;;2.20;;
20619;SDS011;10469;42.720;23.252;2023-03-19T12:58:11;2.35;;;1.95;;
20619;SDS011;10469;42.720;23.252;2023-03-19T13:00:48;6.80;;;2.08;;
20619;SDS011;10469;42.720;23.252;2023-03-19T13:03:26;4.43;;;2.20;;
20619;SDS011;10469;42.720;23.252;2023-03-19T13:22:05;3.25;;;2.05;;
20619;SDS011;10469;42.720;23.252;2023-03-19T13:24:36;1.75;;;1.60;;
20619;SDS011;10469;42.720;23.252;2023-03-19T13:27:05;2.40;;;2.20;;
20619;SDS011;10469;42.720;23.252;2023-03-19T13:29:34;3.60;;;1.55;;
20619;SDS011;10469;42.720;23.252;2023-03-19T13:32:05;1.98;;;1.80;;
20619;SDS011;10469;42.720;23.252;2023-03-19T13:34:37;5.57;;;1.95;;
20619;SDS011;10469;42.720;23.252;2023-03-19T13:39:42;1.60;;;1.50;;
20619;SDS011;10469;42.720;23.252;2023-03-19T13:44:59;3.03;;;1.85;;
20619;SDS011;10469;42.720;23.252;2023-03-19T13:47:47;3.00;;;2.40;;
20619;SDS011;10469;42.720;23.252;2023-03-19T13:50:21;2.65;;;1.85;;
20619;SDS011;10469;42.720;23.252;2023-03-19T13:52:50;1.98;;;1.63;;
20619;SDS011;10469;42.720;23.252;2023-03-19T13:57:57;2.15;;;1.67;;
20619;SDS011;10469;42.720;23.252;2023-03-19T14:01:01;4.13;;;2.08;;
20619;SDS011;10469;42.720;23.252;2023-03-19T14:03:31;2.70;;;1.75;;
20619;SDS011;10469;42.720;23.252;2023-03-19T14:05:59;4.75;;;1.75;;
20619;SDS011;10469;42.720;23.252;2023-03-19T14:08:26;3.22;;;1.95;;
20619;SDS011;10469;42.720;23.252;2023-03-19T14:10:58;2.80;;;1.70;;
20619;SDS011;10469;42.720;23.252;2023-03-19T14:13:39;3.90;;;2.33;;
20619;SDS011;10469;42.720;23.252;2023-03-19T14:16:11;3.15;;;2.10;;
20619;SDS011;10469;42.720;23.252;2023-03-19T14:18:41;3.40;;;2.28;;
20619;SDS011;10469;42.720;23.252;2023-03-19T14:21:15;2.80;;;1.90;;
20619;SDS011;10469;42.720;23.252;2023-03-19T14:24:20;1.90;;;1.67;;
20619;SDS011;10469;42.720;23.252;2023-03-19T14:27:03;1.70;;;1.60;;
20619;SDS011;10469;42.720;23.252;2023-03-19T14:29:40;2.05;;;1.83;;
20619;SDS011;10469;42.720;23.252;2023-03-19T14:32:08;4.53;;;1.73;;
20619;SDS011;10469;42.720;23.252;2023-03-19T14:34:41;2.35;;;2.00;;
20619;SDS011;10469;42.720;23.252;2023-03-19T14:39:57;2.35;;;1.80;;
20619;SDS011;10469;42.720;23.252;2023-03-19T14:55:50;1.70;;;1.60;;
20619;SDS011;10469;42.720;23.252;2023-03-19T14:58:20;3.70;;;1.80;;
20619;SDS011;10469;42.720;23.252;2023-03-19T15:00:51;1.67;;;1.58;;
20619;SDS011;10469;42.720;23.252;2023-03-19T15:03:20;2.63;;;2.00;;
20619;SDS011;10469;42.720;23.252;2023-03-19T15:05:57;4.95;;;1.73;;
20619;SDS011;10469;42.720;23.252;2023-03-19T15:08:25;2.45;;;1.80;;
20619;SDS011;10469;42.720;23.252;2023-03-19T15:16:27;1.10;;;1.10;;
20619;SDS011;10469;42.720;23.252;2023-03-19T15:18:55;2.90;;;1.90;;
20619;SDS011;10469;42.720;23.252;2023-03-19T15:21:21;2.13;;;1.20;;
20619;SDS011;10469;42.720;23.252;2023-03-19T15:23:47;2.20;;;1.83;;
20619;SDS011;10469;42.720;23.252;2023-03-19T15:26:13;3.95;;;2.22;;
20619;SDS011;10469;42.720;23.252;2023-03-19T15:28:46;5.32;;;1.92;;
20619;SDS011;10469;42.720;23.252;2023-03-19T15:31:14;6.90;;;2.70;;
20619;SDS011;10469;42.720;23.252;2023-03-19T15:33:40;3.80;;;2.08;;
20619;SDS011;10469;42.720;23.252;2023-03-19T15:36:14;2.35;;;2.00;;
20619;SDS011;10469;42.720;23.252;2023-03-19T15:38:47;2.20;;;1.80;;
20619;SDS011;10469;42.720;23.252;2023-03-19T15:41:19;2.20;;;1.98;;
20619;SDS011;10469;42.720;23.252;2023-03-19T15:43:54;4.50;;;1.75;;
20619;SDS011;10469;42.720;23.252;2023-03-19T15:46:22;2.22;;;1.50;;
20619;SDS011;10469;42.720;23.252;2023-03-19T15:48:58;2.35;;;2.10;;
20619;SDS011;10469;42.720;23.252;2023-03-19T15:51:39;4.15;;;2.60;;
20619;SDS011;10469;42.720;23.252;2023-03-19T15:54:07;5.20;;;2.25;;
20619;SDS011;10469;42.720;23.252;2023-03-19T15:56:33;1.73;;;1.58;;
20619;SDS011;10469;42.720;23.252;2023-03-19T15:59:02;4.25;;;2.00;;
20619;SDS011;10469;42.720;23.252;2023-03-19T16:01:28;3.22;;;2.22;;
20619;SDS011;10469;42.720;23.252;2023-03-19T16:04:00;3.42;;;1.90;;
20619;SDS011;10469;42.720;23.252;2023-03-19T16:06:47;2.22;;;1.98;;
20619;SDS011;10469;42.720;23.252;2023-03-19T16:11:45;3.13;;;2.00;;
20619;SDS011;10469;42.720;23.252;2023-03-19T16:16:44;6.30;;;2.15;;
20619;SDS011;10469;42.720;23.252;2023-03-19T16:59:38;10.57;;;4.90;;
20619;SDS011;10469;42.720;23.252;2023-03-19T17:02:11;9.10;;;5.53;;
20619;SDS011;10469;42.720;23.252;2023-03-19T17:04:37;6.32;;;4.68;;
20619;SDS011;10469;42.720;23.252;2023-03-19T17:07:04;10.48;;;5.32;;
20619;SDS011;10469;42.720;23.252;2023-03-19T17:09:30;9.60;;;4.70;;
20619;SDS011;10469;42.720;23.252;2023-03-19T17:11:56;9.32;;;4.53;;
20619;SDS011;10469;42.720;23.252;2023-03-19T17:14:22;12.85;;;5.57;;
20619;SDS011;10469;42.720;23.252;2023-03-19T17:16:48;9.13;;;5.70;;
20619;SDS011;10469;42.720;23.252;2023-03-19T17:19:17;7.65;;;4.53;;
20619;SDS011;10469;42.720;23.252;2023-03-19T17:21:45;9.32;;;4.82;;
20619;SDS011;10469;42.720;23.252;2023-03-19T17:24:21;11.32;;;5.82;;
20619;SDS011;10469;42.720;23.252;2023-03-19T17:26:47;10.10;;;6.55;;
20619;SDS011;10469;42.720;23.252;2023-03-19T17:29:12;8.43;;;5.68;;
20619;SDS011;10469;42.720;23.252;2023-03-19T17:31:38;7.53;;;4.82;;
20619;SDS011;10469;42.720;23.252;2023-03-19T17:34:05;8.25;;;4.72;;
20619;SDS011;10469;42.720;23.252;2023-03-19T17:36:40;15.80;;;6.72;;
20619;SDS011;10469;42.720;23.252;2023-03-19T17:39:09;8.95;;;5.28;;
20619;SDS011;10469;42.720;23.252;2023-03-19T17:41:35;11.77;;;5.95;;
20619;SDS011;10469;42.720;23.252;2023-03-19T17:44:01;11.77;;;5.57;;
20619;SDS011;10469;42.720;23.252;2023-03-19T17:46:27;11.95;;;5.82;;
20619;SDS011;10469;42.720;23.252;2023-03-19T17:48:54;14.13;;;6.15;;
20619;SDS011;10469;42.720;23.252;2023-03-19T17:51:21;19.02;;;6.90;;
20619;SDS011;10469;42.720;23.252;2023-03-19T17:53:49;15.57;;;6.50;;
20619;SDS011;10469;42.720;23.252;2023-03-19T17:56:21;11.00;;;5.10;;
20619;SDS011;10469;42.720;23.252;2023-03-19T17:58:51;10.50;;;5.93;;
20619;SDS011;10469;42.720;23.252;2023-03-19T18:01:18;11.68;;;6.03;;
20619;SDS011;10469;42.720;23.252;2023-03-19T18:03:48;12.38;;;6.50;;
20619;SDS011;10469;42.720;23.252;2023-03-19T18:06:15;8.55;;;5.63;;
20619;SDS011;10469;42.720;23.252;2023-03-19T18:08:44;10.13;;;5.40;;
20619;SDS011;10469;42.720;23.252;2023-03-19T18:11:10;18.13;;;6.20;;
20619;SDS011;10469;42.720;23.252;2023-03-19T18:13:38;12.70;;;5.95;;
20619;SDS011;10469;42.720;23.252;2023-03-19T18:16:10;11.52;;;6.00;;
20619;SDS011;10469;42.720;23.252;2023-03-19T18:18:43;14.05;;;6.20;;
20619;SDS011;10469;42.720;23.252;2023-03-19T18:21:12;13.15;;;6.30;;
20619;SDS011;10469;42.720;23.252;2023-03-19T18:23:39;11.52;;;4.53;;
20619;SDS011;10469;42.720;23.252;2023-03-19T18:26:05;8.27;;;4.68;;
20619;SDS011;10469;42.720;23.252;2023-03-19T18:28:31;11.52;;;5.55;;
20619;SDS011;10469;42.720;23.252;2023-03-19T18:30:59;12.57;;;5.68;;
20619;SDS011;10469;42.720;23.252;2023-03-19T18:33:27;16.95;;;6.53;;
20619;SDS011;10469;42.720;23.252;2023-03-19T18:35:55;10.45;;;4.97;;
20619;SDS011;10469;42.720;23.252;2023-03-19T18:38:22;10.57;;;5.53;;
20619;SDS011;10469;42.720;23.252;2023-03-19T18:40:50;10.23;;;5.40;;
20619;SDS011;10469;42.720;23.252;2023-03-19T18:43:17;13.63;;;6.38;;
20619;SDS011;10469;42.720;23.252;2023-03-19T18:45:44;16.52;;;6.57;;
20619;SDS011;10469;42.720;23.252;2023-03-19T18:48:33;11.93;;;5.75;;
20619;SDS011;10469;42.720;23.252;2023-03-19T18:50:58;10.85;;;5.65;;